Time;durP1;ratioP1;P1;durP2;ratioP2;P2;SDS_P1;SDS_P2;PMS_P1;PMS_P2;Temp;Humidity;BMP_temperature;BMP_pressure;BME280_temperature;BME280_humidity;BME280_pressure;Samples;Min_cycle;Max_cycle;Signal;HPM_P1;HPM_P2
2023/06/14 00:01:24;;;;;;;6.68;3.85;;;;;;;13.59;100.00;101885.72;5034976;28;20204;-44
2023/06/14 00:03:49;;;;;;;5.55;3.33;;;;;;;13.60;100.00;101871.34;5037354;28;20235;-45
2023/06/14 00:06:15;;;;;;;6.88;3.90;;;;;;;13.58;100.00;101892.06;5031382;28;20223;-47
2023/06/14 00:08:41;;;;;;;7.90;3.42;;;;;;;13.62;100.00;101882.91;5035563;28;20184;-45
2023/06/14 00:11:06;;;;;;;6.40;3.60;;;;;;;13.54;100.00;101885.88;5031451;28;20180;-43
2023/06/14 00:13:33;;;;;;;7.32;4.00;;;;;;;13.57;100.00;101891.16;5032441;28;20562;-44
2023/06/14 00:15:58;;;;;;;7.20;3.50;;;;;;;13.61;100.00;101883.84;5033755;28;20278;-45
2023/06/14 00:18:24;;;;;;;9.32;3.53;;;;;;;13.53;100.00;101888.63;5032355;28;20291;-44
2023/06/14 00:20:53;;;;;;;10.57;3.63;;;;;;;13.37;100.00;101891.81;5040525;28;20191;-44
2023/06/14 00:23:19;;;;;;;6.38;3.92;;;;;;;13.44;100.00;101886.22;5033719;28;20184;-44
2023/06/14 00:25:45;;;;;;;8.85;3.70;;;;;;;13.50;100.00;101897.69;5031831;28;20552;-44
2023/06/14 00:28:10;;;;;;;4.88;3.60;;;;;;;13.41;100.00;101891.72;5034722;28;20198;-46
2023/06/14 00:30:36;;;;;;;9.10;3.92;;;;;;;13.44;100.00;101892.50;5031180;28;20207;-43
2023/06/14 00:33:01;;;;;;;6.43;3.28;;;;;;;13.47;100.00;101889.72;5033322;28;20222;-45
2023/06/14 00:35:27;;;;;;;5.90;3.40;;;;;;;13.53;100.00;101900.25;5034741;28;20187;-46
2023/06/14 00:37:54;;;;;;;8.43;3.95;;;;;;;13.53;100.00;101894.00;5029391;28;20199;-45
2023/06/14 00:40:20;;;;;;;4.65;3.35;;;;;;;13.64;100.00;101894.50;5051380;28;20195;-45
2023/06/14 00:42:46;;;;;;;5.20;3.13;;;;;;;13.66;100.00;101894.47;5031187;28;20190;-46
2023/06/14 00:45:11;;;;;;;4.57;3.28;;;;;;;13.60;100.00;101901.84;5032689;28;20622;-45
2023/06/14 00:47:38;;;;;;;5.95;3.20;;;;;;;13.66;100.00;101894.47;5035965;28;20286;-44
2023/06/14 00:50:06;;;;;;;5.28;2.95;;;;;;;13.62;100.00;101900.88;5033938;28;20217;-46
2023/06/14 00:52:32;;;;;;;6.82;3.42;;;;;;;13.42;100.00;101902.44;5043871;28;20184;-45
2023/06/14 00:54:58;;;;;;;6.70;3.70;;;;;;;13.53;100.00;101896.69;5035458;28;20179;-44
2023/06/14 00:57:24;;;;;;;7.18;3.33;;;;;;;13.62;100.00;101904.44;5037010;28;20587;-45
2023/06/14 00:59:50;;;;;;;4.65;3.08;;;;;;;13.64;100.00;101896.34;5048958;28;20249;-47
2023/06/14 01:02:16;;;;;;;5.80;4.22;;;;;;;13.53;100.00;101896.69;5033615;28;20576;-44
2023/06/14 01:04:45;;;;;;;7.57;4.03;;;;;;;13.56;100.00;101902.00;5032971;28;20394;-44
2023/06/14 01:07:38;;;;;;;4.18;3.60;;;;;;;13.50;100.00;101894.13;5034610;28;20203;-46
2023/06/14 01:10:23;;;;;;;8.40;3.72;;;;;;;13.54;100.00;101896.66;5037674;28;20301;-46
2023/06/14 01:12:59;;;;;;;5.97;3.58;;;;;;;13.51;100.00;101896.75;5035512;28;20183;-44
2023/06/14 01:15:26;;;;;;;3.72;3.28;;;;;;;13.53;100.00;101902.06;5032160;28;20180;-46
2023/06/14 01:17:53;;;;;;;5.88;3.90;;;;;;;13.49;100.00;101904.00;5032981;28;20281;-45
2023/06/14 01:20:22;;;;;;;6.82;3.45;;;;;;;13.46;100.00;101898.72;5035940;28;20267;-44
2023/06/14 01:22:54;;;;;;;6.85;4.30;;;;;;;13.35;100.00;101904.44;5039306;28;20193;-47
2023/06/14 01:25:23;;;;;;;6.65;4.07;;;;;;;13.41;100.00;101905.19;5023734;28;20546;-45
2023/06/14 01:27:52;;;;;;;10.15;3.90;;;;;;;13.41;100.00;101905.19;5047913;28;20235;-45
2023/06/14 01:30:20;;;;;;;7.82;4.15;;;;;;;13.36;100.00;101913.44;5034912;28;20194;-48
2023/06/14 01:32:47;;;;;;;4.07;3.40;;;;;;;13.26;100.00;101906.53;5029604;28;20172;-44
2023/06/14 01:35:12;;;;;;;5.18;3.60;;;;;;;13.22;100.00;101916.50;5033305;28;20191;-47
2023/06/14 01:37:40;;;;;;;6.82;3.78;;;;;;;13.27;100.00;101908.28;5033296;28;20197;-45
2023/06/14 01:40:07;;;;;;;5.25;3.42;;;;;;;13.24;100.00;101905.69;4997618;28;20212;-46
2023/06/14 01:42:36;;;;;;;8.65;4.18;;;;;;;13.20;100.00;101912.97;5034427;28;20263;-47
2023/06/14 01:45:05;;;;;;;7.60;4.25;;;;;;;13.26;100.00;101904.72;5028489;28;20584;-45
2023/06/14 01:47:34;;;;;;;5.47;3.60;;;;;;;13.18;100.00;101906.75;5050705;28;20234;-46
2023/06/14 01:50:00;;;;;;;5.05;3.55;;;;;;;13.17;100.00;101907.72;5043851;28;20193;-46
2023/06/14 01:52:25;;;;;;;5.75;3.35;;;;;;;13.16;100.00;101906.84;5032066;28;20176;-45
2023/06/14 01:54:51;;;;;;;5.05;3.40;;;;;;;13.16;100.00;101911.31;5035925;28;20206;-46
2023/06/14 01:57:17;;;;;;;5.57;3.55;;;;;;;13.13;100.00;101901.53;5029886;28;20696;-46
2023/06/14 01:59:42;;;;;;;6.68;3.50;;;;;;;13.08;100.00;101903.50;5047150;28;20245;-47
2023/06/14 02:02:08;;;;;;;8.43;4.20;;;;;;;13.03;100.00;101904.56;5032366;28;20187;-47
2023/06/14 02:04:34;;;;;;;5.85;3.25;;;;;;;13.06;100.00;101916.13;5030104;28;20192;-46
2023/06/14 02:07:50;;;;;;;8.38;3.75;;;;;;;12.99;100.00;101909.19;5035738;28;20204;-45
2023/06/14 02:10:17;;;;;;;6.65;3.80;;;;;;;13.06;100.00;101909.84;5027390;28;20529;-46
2023/06/14 02:12:43;;;;;;;3.88;3.33;;;;;;;13.08;100.00;101914.25;5029958;28;20179;-46
2023/06/14 02:15:16;;;;;;;9.95;4.22;;;;;;;13.03;100.00;101910.84;5034432;28;20183;-47
2023/06/14 02:17:46;;;;;;;4.10;3.22;;;;;;;13.00;100.00;101913.59;5031743;28;20239;-45
2023/06/14 02:20:12;;;;;;;3.97;3.28;;;;;;;13.01;100.00;101915.38;5029953;28;20188;-44
2023/06/14 02:22:38;;;;;;;5.30;3.45;;;;;;;12.96;100.00;101904.75;5036190;28;20213;-45
2023/06/14 02:25:07;;;;;;;5.20;3.10;;;;;;;12.99;100.00;101906.47;5034456;28;20176;-45
2023/06/14 02:27:33;;;;;;;3.80;2.92;;;;;;;12.98;100.00;101908.28;5038909;28;20223;-45
2023/06/14 02:29:59;;;;;;;5.50;4.00;;;;;;;12.94;100.00;101911.09;5051948;28;20275;-45
2023/06/14 02:32:26;;;;;;;9.63;3.25;;;;;;;12.78;100.00;101911.56;5037048;28;20176;-45
2023/06/14 02:34:53;;;;;;;6.07;3.30;;;;;;;12.80;100.00;101913.34;5039610;28;20242;-46
2023/06/14 02:37:19;;;;;;;8.43;3.72;;;;;;;12.65;100.00;101904.81;5034382;28;20238;-46
2023/06/14 02:39:45;;;;;;;5.18;3.33;;;;;;;12.65;100.00;101904.81;5034547;28;20188;-45
2023/06/14 02:42:11;;;;;;;5.47;3.38;;;;;;;12.54;100.00;101912.31;5036732;28;20176;-45
2023/06/14 02:44:36;;;;;;;7.70;3.03;;;;;;;12.48;100.00;101915.16;5044095;28;20249;-47
2023/06/14 02:47:03;;;;;;;4.63;3.15;;;;;;;12.38;100.00;101919.94;5050240;28;20701;-48
2023/06/14 02:49:29;;;;;;;4.65;3.20;;;;;;;12.24;100.00;101923.00;5036255;28;20373;-48
2023/06/14 02:51:55;;;;;;;3.65;3.08;;;;;;;12.30;100.00;101921.94;5050770;28;20639;-47
2023/06/14 02:54:21;;;;;;;3.78;2.97;;;;;;;12.47;100.00;101916.97;5020089;28;20665;-47
2023/06/14 02:56:46;;;;;;;3.72;3.10;;;;;;;12.50;100.00;101918.69;5036817;28;20204;-47
2023/06/14 02:59:13;;;;;;;6.93;3.38;;;;;;;12.44;100.00;101927.84;5048763;28;20179;-45
2023/06/14 03:01:41;;;;;;;3.67;3.10;;;;;;;12.46;100.00;101923.28;5053807;28;20207;-47
2023/06/14 03:04:09;;;;;;;4.63;3.13;;;;;;;12.38;100.00;101927.13;5040567;28;20616;-51
2023/06/14 03:06:39;;;;;;;3.53;3.20;;;;;;;12.33;100.00;101917.38;5034601;28;20231;-52
2023/06/14 03:09:05;;;;;;;5.38;3.25;;;;;;;12.39;100.00;101921.69;5052135;28;20187;-49
2023/06/14 03:11:32;;;;;;;5.82;3.30;;;;;;;12.32;100.00;101920.97;5037088;28;20566;-49
2023/06/14 03:13:59;;;;;;;14.10;3.83;;;;;;;12.27;100.00;101922.03;5050370;28;20198;-52
2023/06/14 03:16:28;;;;;;;6.20;3.35;;;;;;;12.25;100.00;101921.22;5039769;28;20266;-49
2023/06/14 03:18:54;;;;;;;11.02;3.30;;;;;;;12.20;100.00;101928.50;5030390;28;20184;-53
2023/06/14 03:21:20;;;;;;;7.03;3.55;;;;;;;12.24;100.00;101923.00;5036206;28;20293;-48
2023/06/14 03:23:47;;;;;;;5.60;3.83;;;;;;;12.27;100.00;101927.41;5036975;28;20424;-49
2023/06/14 03:26:13;;;;;;;7.40;3.55;;;;;;;12.35;100.00;101928.97;5017875;28;20262;-50
2023/06/14 03:28:50;;;;;;;6.13;3.58;;;;;;;12.42;100.00;101931.47;5052092;28;20199;-49
2023/06/14 03:31:16;;;;;;;6.22;3.25;;;;;;;12.44;100.00;101927.84;5030399;28;20206;-50
2023/06/14 03:33:43;;;;;;;4.43;3.28;;;;;;;12.44;100.00;101930.53;5018306;28;20277;-48
2023/06/14 03:36:08;;;;;;;4.65;3.35;;;;;;;12.42;100.00;101931.47;5033384;28;20211;-48
2023/06/14 03:38:34;;;;;;;5.75;3.67;;;;;;;12.53;100.00;101930.25;5045700;28;20226;-50
2023/06/14 03:41:01;;;;;;;7.32;3.75;;;;;;;12.45;100.00;101932.25;5043052;28;20187;-52
2023/06/14 03:43:27;;;;;;;5.03;3.45;;;;;;;12.33;100.00;101936.19;5034958;28;20214;-49
2023/06/14 03:45:53;;;;;;;5.53;3.17;;;;;;;12.44;100.00;101945.75;5033381;28;20410;-48
2023/06/14 03:48:20;;;;;;;3.25;2.95;;;;;;;12.46;100.00;101943.88;5051450;28;20213;-48
2023/06/14 03:50:45;;;;;;;6.68;3.65;;;;;;;12.44;100.00;101941.28;5032849;28;20279;-51
2023/06/14 03:53:11;;;;;;;6.70;3.70;;;;;;;12.40;100.00;101941.38;5033092;28;20657;-51
2023/06/14 03:55:41;;;;;;;5.57;3.50;;;;;;;12.49;100.00;101942.00;5035034;28;20650;-50
2023/06/14 03:58:06;;;;;;;4.30;2.90;;;;;;;12.54;100.00;101941.88;5032820;28;20232;-49
2023/06/14 04:00:32;;;;;;;4.05;3.63;;;;;;;12.58;100.00;101940.88;5042419;28;20626;-52
2023/06/14 04:02:58;;;;;;;3.92;3.40;;;;;;;12.47;100.00;101951.91;5051073;28;20199;-52
2023/06/14 04:05:26;;;;;;;3.58;3.28;;;;;;;12.41;100.00;101959.28;5036366;28;20181;-49
2023/06/14 04:07:55;;;;;;;4.78;3.17;;;;;;;12.54;100.00;101956.19;5042009;28;20541;-51
2023/06/14 04:10:21;;;;;;;4.60;3.67;;;;;;;12.65;100.00;101960.38;5036589;28;20262;-49
2023/06/14 04:12:47;;;;;;;4.07;3.40;;;;;;;12.78;100.00;101949.22;5031060;28;20192;-49
2023/06/14 04:15:13;;;;;;;7.35;3.85;;;;;;;12.90;100.00;101947.09;5023144;28;20180;-51
2023/06/14 04:17:39;;;;;;;6.00;3.80;;;;;;;12.96;100.00;101955.84;5036116;28;20207;-54
2023/06/14 04:20:07;;;;;;;6.68;3.33;;;;;;;13.01;100.00;101963.81;5033844;28;20310;-50
2023/06/14 04:22:33;;;;;;;4.65;3.60;;;;;;;13.08;100.00;101956.44;5048492;28;20690;-48
2023/06/14 04:24:59;;;;;;;5.82;3.60;;;;;;;13.07;100.00;101957.34;5017608;28;20184;-50
2023/06/14 04:27:27;;;;;;;5.60;3.70;;;;;;;13.15;100.00;101956.19;5050530;28;20608;-49
2023/06/14 04:29:56;;;;;;;7.10;4.40;;;;;;;13.29;100.00;101969.22;5050106;28;20172;-52
2023/06/14 04:32:25;;;;;;;6.85;4.10;;;;;;;13.38;100.00;101977.03;5047520;28;20179;-49
2023/06/14 04:35:03;;;;;;;7.80;4.82;;;;;;;13.41;100.00;101959.91;5038035;28;20262;-49
2023/06/14 04:37:31;;;;;;;12.45;4.07;;;;;;;13.45;100.00;101972.34;5050285;28;20199;-49
2023/06/14 04:39:57;;;;;;;4.55;3.30;;;;;;;13.55;100.00;101978.31;5036289;28;20176;-53
2023/06/14 04:42:25;;;;;;;10.05;4.32;;;;;;;13.63;100.00;101983.47;5034507;28;20251;-49
2023/06/14 04:44:55;;;;;;;10.30;4.80;;;;;;;13.73;100.00;101977.72;5047878;28;20457;-50
2023/06/14 04:47:21;;;;;;;6.00;4.05;;;;;;;13.84;100.00;101977.38;5016377;28;20493;-51
2023/06/14 04:49:47;;;;;;;4.80;4.28;;;;;;;13.98;100.00;101980.47;5030546;28;20543;-49
2023/06/14 04:52:13;;;;;;;10.50;4.32;;;;;;;14.06;100.00;101980.22;5033252;28;20214;-50
2023/06/14 04:54:44;;;;;;;8.82;4.05;;;;;;;14.11;100.00;101983.63;5032978;28;20172;-49
2023/06/14 04:57:17;;;;;;;7.47;3.83;;;;;;;14.13;100.00;101983.56;5048018;28;20723;-48
2023/06/14 04:59:44;;;;;;;7.95;4.05;;;;;;;14.27;100.00;101977.69;5032070;28;20572;-52
2023/06/14 05:02:11;;;;;;;8.02;4.20;;;;;;;14.36;100.00;101975.53;5037961;28;20207;-50
2023/06/14 05:04:39;;;;;;;5.90;3.50;;;;;;;14.51;100.00;101982.19;5031414;28;20195;-51
2023/06/14 05:07:12;;;;;;;6.32;3.65;;;;;;;14.53;100.00;101987.53;5029618;28;20203;-50
2023/06/14 05:09:37;;;;;;;9.48;4.18;;;;;;;14.72;100.00;101982.41;5044733;28;20346;-50
2023/06/14 05:12:04;;;;;;;5.22;3.47;;;;;;;14.75;100.00;101988.53;5035424;28;20175;-54
2023/06/14 05:14:29;;;;;;;5.45;3.30;;;;;;;14.87;100.00;101981.81;5033971;28;20649;-50
2023/06/14 05:16:57;;;;;;;5.75;3.50;;;;;;;14.94;100.00;101979.78;5035010;28;20196;-52
2023/06/14 05:19:22;;;;;;;9.38;3.88;;;;;;;15.06;100.00;101986.50;5030722;28;20192;-54
2023/06/14 05:21:48;;;;;;;7.00;3.83;;;;;;;15.01;100.00;101989.38;5031607;28;20187;-48
2023/06/14 05:24:14;;;;;;;5.55;3.50;;;;;;;15.16;100.00;101983.38;5031598;28;20215;-50
2023/06/14 05:26:40;;;;;;;6.47;3.50;;;;;;;15.10;100.00;101982.75;5031508;28;20265;-48
2023/06/14 05:29:05;;;;;;;7.70;3.65;;;;;;;15.16;100.00;101978.00;5040784;28;20630;-50
2023/06/14 05:31:31;;;;;;;7.15;3.30;;;;;;;15.21;100.00;101978.69;5032940;28;20238;-50
2023/06/14 05:33:57;;;;;;;6.70;3.70;;;;;;;15.36;100.00;101974.50;5035804;28;20184;-48
2023/06/14 05:36:22;;;;;;;5.82;3.53;;;;;;;15.37;100.00;101981.69;5031984;28;20279;-48
2023/06/14 05:38:48;;;;;;;6.00;3.50;;;;;;;15.53;100.00;101976.53;5034761;28;20389;-49
2023/06/14 05:41:14;;;;;;;10.48;3.47;;;;;;;15.51;100.00;101972.13;5027139;28;20176;-53
2023/06/14 05:43:39;;;;;;;5.60;3.47;;;;;;;15.42;100.00;101971.56;5031226;28;20700;-51
2023/06/14 05:46:05;;;;;;;5.32;3.45;;;;;;;15.32;100.00;101980.09;5028467;28;20215;-48
2023/06/14 05:48:31;;;;;;;8.70;3.40;;;;;;;15.31;100.00;101976.50;5035654;28;20207;-50
2023/06/14 05:50:56;;;;;;;7.03;3.65;;;;;;;15.56;100.00;101987.19;5033787;28;20215;-49
2023/06/14 05:53:22;;;;;;;7.15;3.30;;;;;;;15.69;100.00;101978.59;5036489;28;20187;-49
2023/06/14 05:55:47;;;;;;;7.15;3.60;;;;;;;15.84;100.00;101981.56;5033075;28;20218;-47
2023/06/14 05:58:13;;;;;;;6.32;3.40;;;;;;;15.82;100.00;101982.59;5016560;28;20612;-49
2023/06/14 06:03:09;;;;;;;8.85;3.50;;;;;;;15.72;100.00;101975.78;4996315;22;20233;-49
2023/06/14 06:05:34;;;;;;;7.63;3.33;;;;;;;15.73;100.00;101982.97;4983306;28;20193;-49
2023/06/14 06:08:00;;;;;;;6.47;3.03;;;;;;;15.98;100.00;101985.50;4980038;28;20220;-48
2023/06/14 06:10:26;;;;;;;6.05;3.28;;;;;;;16.38;100.00;101984.69;4984690;28;20174;-50
2023/06/14 06:12:52;;;;;;;6.78;3.10;;;;;;;16.47;100.00;101978.84;4994180;28;20162;-48
2023/06/14 06:15:18;;;;;;;9.70;3.30;;;;;;;16.67;100.00;101985.22;5002906;28;20714;-48
2023/06/14 06:17:44;;;;;;;6.45;2.90;;;;;;;16.87;100.00;101981.63;4977472;28;20236;-48
2023/06/14 06:20:11;;;;;;;4.70;2.90;;;;;;;17.06;100.00;101987.06;4974802;28;20221;-48
2023/06/14 06:22:37;;;;;;;8.35;2.67;;;;;;;17.33;100.00;101983.97;4982796;28;20197;-47
2023/06/14 06:25:03;;;;;;;5.68;3.10;;;;;;;16.98;98.97;101983.81;4982358;28;20181;-47
2023/06/14 06:27:29;;;;;;;7.68;2.88;;;;;;;17.47;98.56;101986.88;4990403;28;20219;-49
2023/06/14 06:29:55;;;;;;;6.68;2.85;;;;;;;17.61;96.56;101980.81;4978647;28;20629;-50
2023/06/14 06:32:21;;;;;;;7.30;2.72;;;;;;;18.02;94.79;101978.75;4974267;28;20530;-50
2023/06/14 06:34:47;;;;;;;7.13;3.03;;;;;;;18.17;92.58;101970.78;4975069;28;20186;-48
2023/06/14 06:37:13;;;;;;;7.50;2.88;;;;;;;17.77;93.45;101975.50;4980092;28;20822;-48
2023/06/14 06:39:39;;;;;;;7.97;2.97;;;;;;;18.12;91.98;101969.16;5001096;28;20178;-51
2023/06/14 06:42:05;;;;;;;7.13;3.00;;;;;;;18.45;90.04;101972.91;4975182;28;20192;-51
2023/06/14 06:44:35;;;;;;;6.90;2.83;;;;;;;18.51;88.14;101961.75;4990357;28;20236;-49
2023/06/14 06:47:02;;;;;;;4.43;2.92;;;;;;;18.64;87.38;101972.81;4992827;28;20272;-49
2023/06/14 06:49:27;;;;;;;4.70;2.85;;;;;;;19.12;85.32;101969.28;4978363;28;20201;-49
2023/06/14 06:52:03;;;;;;;7.28;2.75;;;;;;;18.91;84.30;101970.47;5002736;28;20186;-49
2023/06/14 06:54:29;;;;;;;9.23;3.38;;;;;;;19.09;82.74;101971.31;4991282;28;20215;-49
2023/06/14 06:56:55;;;;;;;6.65;3.08;;;;;;;19.12;81.87;101965.69;4988151;28;20306;-49
2023/06/14 06:59:21;;;;;;;6.60;2.85;;;;;;;18.54;81.90;101969.69;4980238;28;20182;-48
2023/06/14 07:01:46;;;;;;;5.50;2.78;;;;;;;18.46;82.65;101967.41;4992785;28;20190;-48
2023/06/14 07:04:13;;;;;;;4.13;2.65;;;;;;;18.96;83.38;101981.06;4975938;28;20184;-48
2023/06/14 07:06:38;;;;;;;8.68;3.40;;;;;;;18.85;81.25;101968.09;4977244;28;20667;-46
2023/06/14 07:09:07;;;;;;;8.85;2.85;;;;;;;19.47;80.36;101977.25;4985188;28;20245;-49
2023/06/14 07:11:33;;;;;;;4.10;2.45;;;;;;;19.65;78.27;101959.00;4979218;28;20202;-48
2023/06/14 07:13:59;;;;;;;5.85;2.58;;;;;;;19.46;77.61;101956.50;4973277;28;20228;-48
2023/06/14 07:16:25;;;;;;;6.68;2.97;;;;;;;19.07;78.50;101970.50;4991413;28;20300;-49
2023/06/14 07:18:51;;;;;;;7.63;2.85;;;;;;;18.88;79.27;101984.22;4982351;28;20183;-49
2023/06/14 07:21:16;;;;;;;5.10;2.78;;;;;;;19.04;80.05;101985.13;4974066;28;20558;-47
2023/06/14 07:23:42;;;;;;;5.78;2.88;;;;;;;19.63;78.91;101979.09;4986956;28;20801;-48
2023/06/14 07:26:08;;;;;;;6.38;2.97;;;;;;;19.09;78.24;101974.03;4992421;28;20196;-49
2023/06/14 07:28:33;;;;;;;6.28;2.63;;;;;;;19.18;78.97;101987.06;4988375;28;20209;-51
2023/06/14 07:30:59;;;;;;;6.40;2.72;;;;;;;19.30;79.31;101990.94;4977982;28;20189;-48
2023/06/14 07:33:24;;;;;;;4.15;3.00;;;;;;;19.61;78.14;101991.91;4990101;28;20169;-51
2023/06/14 07:35:52;;;;;;;4.18;2.60;;;;;;;20.16;75.61;101981.41;4982552;28;20664;-50
2023/06/14 07:38:17;;;;;;;6.13;2.42;;;;;;;19.54;75.83;101970.50;4994389;28;20202;-51
2023/06/14 07:40:43;;;;;;;3.58;2.50;;;;;;;20.09;76.53;101977.28;4978046;28;20212;-50
2023/06/14 07:43:33;;;;;;;4.47;2.25;;;;;;;20.46;74.10;101979.63;4977932;28;20193;-53
2023/06/14 07:45:59;;;;;;;5.53;2.92;;;;;;;20.86;72.55;101966.25;4993891;28;20170;-53
2023/06/14 07:48:34;;;;;;;6.85;2.65;;;;;;;21.05;71.52;101969.56;4977713;28;20215;-53
2023/06/14 07:51:01;;;;;;;8.05;3.10;;;;;;;20.44;71.64;101970.66;4980508;28;20310;-51
2023/06/14 07:53:26;;;;;;;5.88;2.42;;;;;;;20.85;70.69;101962.66;4979889;28;20741;-54
2023/06/14 07:55:52;;;;;;;5.40;2.42;;;;;;;20.47;71.50;101974.09;4980503;28;20189;-52
2023/06/14 07:58:51;;;;;;;7.57;2.60;;;;;;;20.78;70.44;101958.59;4980436;28;20209;-51
2023/06/14 08:01:33;;;;;;;6.43;3.00;;;;;;;19.96;72.90;101982.59;4973670;28;20553;-52
2023/06/14 08:03:59;;;;;;;4.38;2.97;;;;;;;19.15;78.92;102003.53;4976025;28;20180;-54
2023/06/14 08:06:25;;;;;;;6.55;3.35;;;;;;;19.25;81.09;102012.94;4991999;28;20293;-53
2023/06/14 08:08:50;;;;;;;6.88;2.55;;;;;;;19.16;82.38;102016.16;4977701;28;20185;-52
2023/06/14 08:11:16;;;;;;;5.03;2.60;;;;;;;18.90;82.86;102013.03;4984292;28;20207;-52
2023/06/14 08:13:41;;;;;;;6.97;2.70;;;;;;;19.01;84.13;102019.72;4978876;28;20201;-51
2023/06/14 08:16:07;;;;;;;6.70;3.42;;;;;;;18.79;84.85;102026.31;4980291;28;20277;-51
2023/06/14 08:18:32;;;;;;;4.72;2.50;;;;;;;19.12;83.81;102015.44;4979401;28;20209;-52
2023/06/14 08:20:58;;;;;;;5.43;3.08;;;;;;;19.04;85.33;102016.84;4974435;28;20182;-54
2023/06/14 08:23:23;;;;;;;7.15;3.50;;;;;;;19.30;85.36;102008.09;4978531;28;20189;-52
2023/06/14 08:25:49;;;;;;;5.82;2.65;;;;;;;19.80;82.26;101997.19;4982505;28;20183;-52
2023/06/14 08:28:15;;;;;;;5.40;3.00;;;;;;;19.26;82.72;101995.69;4996446;28;20240;-53
2023/06/14 08:30:42;;;;;;;8.38;3.35;;;;;;;19.29;82.29;102002.78;4972326;28;20186;-52
2023/06/14 08:33:07;;;;;;;6.88;2.67;;;;;;;20.37;81.83;102008.28;4972676;28;20185;-51
2023/06/14 08:35:33;;;;;;;4.78;2.70;;;;;;;20.72;76.25;101983.47;4980538;28;20683;-53
2023/06/14 08:37:58;;;;;;;8.15;3.00;;;;;;;19.99;78.44;101978.81;4979932;28;20755;-53
2023/06/14 08:40:24;;;;;;;4.07;2.47;;;;;;;20.58;75.46;101977.03;4977047;28;20174;-52
2023/06/14 08:42:54;;;;;;;4.60;2.90;;;;;;;20.72;73.58;101969.84;4993264;28;20181;-50
2023/06/14 08:45:21;;;;;;;5.75;2.28;;;;;;;21.59;72.73;101969.69;4981448;28;20185;-51
2023/06/14 08:47:51;;;;;;;6.82;2.88;;;;;;;21.15;72.29;101984.34;4984269;28;20270;-52
2023/06/14 08:50:21;;;;;;;7.40;2.88;;;;;;;20.81;76.65;101991.06;4976264;28;20199;-54
2023/06/14 08:52:52;;;;;;;3.47;2.65;;;;;;;20.88;76.75;101991.56;4978053;28;20200;-52
2023/06/14 08:55:19;;;;;;;4.80;2.85;;;;;;;20.93;74.93;101993.03;4979792;28;20186;-51
2023/06/14 08:57:49;;;;;;;6.97;3.08;;;;;;;19.83;76.65;101991.56;4977451;28;20202;-53
2023/06/14 09:00:15;;;;;;;4.88;3.13;;;;;;;19.98;79.11;102001.53;4978336;28;20211;-52
2023/06/14 09:02:43;;;;;;;5.15;2.50;;;;;;;21.00;75.34;101988.06;4972689;28;20189;-52
2023/06/14 09:05:13;;;;;;;9.15;3.28;;;;;;;21.40;73.72;101977.28;4980049;28;20212;-53
2023/06/14 09:07:42;;;;;;;8.75;2.63;;;;;;;21.10;72.89;101983.78;4991393;28;20212;-53
2023/06/14 09:10:08;;;;;;;7.15;2.95;;;;;;;21.14;73.09;101985.34;4975722;28;20586;-52
2023/06/14 09:12:34;;;;;;;4.03;2.63;;;;;;;21.47;71.10;101986.88;4980728;28;20190;-52
2023/06/14 09:15:00;;;;;;;5.05;2.63;;;;;;;21.63;70.51;101981.28;4982451;28;20268;-52
2023/06/14 09:22:41;;;;;;;4.20;2.40;;;;;;;22.27;63.83;101934.22;5013829;28;20549;-46
2023/06/14 09:25:07;;;;;;;6.43;2.70;;;;;;;21.61;64.38;101931.41;5016903;28;20183;-45
2023/06/14 09:27:33;;;;;;;4.75;2.33;;;;;;;22.55;64.62;101944.06;5008240;28;20251;-45
2023/06/14 09:29:58;;;;;;;8.45;2.78;;;;;;;22.51;63.15;101935.19;4999146;28;20718;-45
2023/06/14 09:32:25;;;;;;;3.63;2.40;;;;;;;21.95;63.16;101929.09;5007203;28;20187;-47
2023/06/14 09:34:50;;;;;;;4.88;2.30;;;;;;;22.76;62.05;101944.38;5002387;28;20659;-46
2023/06/14 09:37:32;;;;;;;3.70;2.28;;;;;;;21.40;63.58;101958.19;4995590;28;20208;-46
2023/06/14 09:39:59;;;;;;;3.63;2.30;;;;;;;22.17;62.53;101951.22;5002682;28;20179;-49
2023/06/14 09:42:29;;;;;;;3.75;2.13;;;;;;;22.14;63.38;101954.13;4999223;28;20191;-48
2023/06/14 09:44:56;;;;;;;4.15;2.30;;;;;;;22.40;63.69;101955.06;4999476;28;20505;-48
2023/06/14 09:47:23;;;;;;;6.43;2.28;;;;;;;22.33;61.67;101948.31;4996311;28;20401;-49
2023/06/14 09:49:50;;;;;;;4.90;2.88;;;;;;;21.97;61.91;101935.31;4995140;28;20650;-48
2023/06/14 09:52:17;;;;;;;6.47;3.03;;;;;;;21.85;63.51;101955.28;4997223;28;20177;-47
2023/06/14 09:54:48;;;;;;;4.57;2.40;;;;;;;22.53;61.64;101943.28;4995637;28;20255;-48
2023/06/14 09:57:21;;;;;;;4.55;2.17;;;;;;;23.19;59.63;101924.88;4997350;28;20196;-47
2023/06/14 09:59:48;;;;;;;4.90;2.15;;;;;;;22.50;58.68;101922.53;5000604;28;20208;-47
2023/06/14 10:02:26;;;;;;;7.50;2.70;;;;;;;21.88;58.77;101923.19;4997130;28;20644;-47
2023/06/14 10:05:06;;;;;;;7.07;2.78;;;;;;;22.01;60.74;101932.28;4997043;28;20322;-48
2023/06/14 10:07:50;;;;;;;5.13;2.80;;;;;;;22.45;58.60;101918.38;5004985;28;20216;-48
2023/06/14 10:10:15;;;;;;;8.95;2.60;;;;;;;22.28;57.75;101906.81;4996380;28;20224;-48
2023/06/14 10:12:41;;;;;;;5.35;2.38;;;;;;;22.18;56.57;101892.03;4997873;28;20670;-48
2023/06/14 10:15:09;;;;;;;5.70;2.38;;;;;;;22.76;56.17;101897.91;4994539;28;20196;-48
2023/06/14 10:17:41;;;;;;;6.75;2.28;;;;;;;22.25;54.60;101878.84;4996454;28;20200;-48
2023/06/14 10:20:21;;;;;;;5.72;2.35;;;;;;;22.52;56.57;101896.00;4996019;28;20177;-49
2023/06/14 10:22:58;;;;;;;4.88;2.20;;;;;;;22.97;53.74;101876.34;4993101;28;20672;-48
2023/06/14 10:25:31;;;;;;;2.80;1.90;;;;;;;23.43;52.12;101860.09;5004136;28;20263;-46
2023/06/14 10:28:24;;;;;;;2.85;1.95;;;;;;;23.60;50.25;101847.00;4997974;28;20212;-48
2023/06/14 10:31:09;;;;;;;3.80;2.72;;;;;;;23.40;49.52;101835.75;4994415;28;20199;-48
2023/06/14 10:33:54;;;;;;;4.75;2.30;;;;;;;23.51;50.89;101854.06;4995608;28;20577;-48
2023/06/14 10:36:33;;;;;;;3.13;2.00;;;;;;;24.03;49.88;101854.63;4992700;28;20280;-47
2023/06/14 10:39:14;;;;;;;5.05;1.95;;;;;;;23.66;48.26;101835.59;4997649;28;20218;-47
2023/06/14 10:41:41;;;;;;;5.25;2.17;;;;;;;23.18;51.15;101849.31;4997365;28;20180;-46
2023/06/14 10:44:12;;;;;;;5.40;2.28;;;;;;;23.04;50.89;101856.66;4997256;28;20926;-47
2023/06/14 10:46:39;;;;;;;4.00;2.25;;;;;;;22.29;51.53;101850.34;4997132;28;20193;-47
2023/06/14 10:49:06;;;;;;;2.35;2.03;;;;;;;22.30;51.46;101850.25;4995593;28;20185;-49
2023/06/14 10:51:46;;;;;;;6.00;2.15;;;;;;;22.76;51.45;101843.28;5001336;28;20168;-47
2023/06/14 10:54:20;;;;;;;6.10;1.88;;;;;;;22.78;49.17;101822.16;4998624;28;20593;-47
2023/06/14 10:56:51;;;;;;;2.53;2.08;;;;;;;22.89;49.18;101832.31;4999358;28;20674;-47
2023/06/14 10:59:18;;;;;;;6.47;1.92;;;;;;;23.21;49.54;101827.19;5002682;28;20219;-48
2023/06/14 11:01:56;;;;;;;3.25;1.83;;;;;;;23.81;47.68;101820.75;5001450;28;20383;-47
2023/06/14 11:04:30;;;;;;;4.85;1.73;;;;;;;23.47;47.42;101813.41;5000968;28;20574;-48
2023/06/14 11:07:10;;;;;;;3.58;1.58;;;;;;;23.43;47.03;101819.09;5000238;28;20216;-47
2023/06/14 11:09:49;;;;;;;3.75;2.08;;;;;;;23.15;48.01;101819.44;4997858;28;20196;-48
2023/06/14 11:12:16;;;;;;;5.00;2.05;;;;;;;23.30;48.23;101822.88;4999428;28;20656;-47
2023/06/14 11:14:46;;;;;;;3.45;2.00;;;;;;;23.76;49.01;101835.78;5002426;28;20172;-49
2023/06/14 11:17:12;;;;;;;2.92;1.88;;;;;;;24.33;48.37;101834.00;4995829;28;20193;-47
2023/06/14 11:19:38;;;;;;;3.10;1.80;;;;;;;23.11;48.84;101815.19;4995895;28;20184;-48
2023/06/14 11:22:04;;;;;;;2.88;2.25;;;;;;;23.36;49.82;101842.44;4998571;28;20193;-47
2023/06/14 11:24:29;;;;;;;4.97;1.92;;;;;;;23.67;48.14;101820.06;5000149;28;20177;-47
2023/06/14 11:26:56;;;;;;;7.22;2.15;;;;;;;23.81;47.95;101820.75;4998883;28;20295;-48
2023/06/14 11:29:22;;;;;;;4.68;1.95;;;;;;;22.72;49.12;101822.63;4999920;28;20627;-47
2023/06/14 11:31:47;;;;;;;6.20;2.40;;;;;;;23.29;49.38;101827.50;4999008;28;20263;-48